createdAt,value
2023-02-12T00:01:29.247Z,101801.00
2023-02-12T00:03:57.804Z,101789.56
2023-02-12T00:06:26.281Z,101791.25
2023-02-12T00:08:57.003Z,101784.97
2023-02-12T00:11:26.734Z,101785.91
2023-02-12T00:13:58.781Z,101779.72
2023-02-12T00:16:29.099Z,101778.13
2023-02-12T00:18:58.475Z,101769.97
2023-02-12T00:21:28.177Z,101765.66
2023-02-12T00:23:57.230Z,101767.34
2023-02-12T00:26:26.475Z,101762.09
2023-02-12T00:28:55.529Z,101769.03
2023-02-12T00:31:27.029Z,101775.97
2023-02-12T00:33:55.529Z,101779.47
2023-02-12T00:36:25.571Z,101782.09
2023-02-12T00:38:55.375Z,101762.66
2023-02-12T00:41:24.343Z,101767.72
2023-02-12T00:43:53.199Z,101767.63
2023-02-12T00:46:21.622Z,101761.34
2023-02-12T00:48:51.274Z,101756.00
2023-02-12T00:51:19.501Z,101757.59
2023-02-12T00:53:47.653Z,101754.88
2023-02-12T00:56:15.925Z,101749.59
2023-02-12T00:58:44.154Z,101746.03
2023-02-12T01:01:12.739Z,101751.09
2023-02-12T01:03:41.029Z,101756.16
2023-02-12T01:06:10.974Z,101762.06
2023-02-12T01:08:39.209Z,101759.34
2023-02-12T01:11:08.052Z,101755.69
2023-02-12T01:13:37.162Z,101747.59
2023-02-12T01:16:10.948Z,101744.97
2023-02-12T01:18:40.067Z,101746.66
2023-02-12T01:21:14.548Z,101751.72
2023-02-12T01:23:43.127Z,101745.44
2023-02-12T01:26:12.377Z,101752.28
2023-02-12T01:28:41.265Z,101742.59
2023-02-12T01:31:17.118Z,101747.75
2023-02-12T01:33:45.807Z,101745.97
2023-02-12T01:36:15.419Z,101745.00
2023-02-12T01:38:43.955Z,101743.13
2023-02-12T01:41:14.946Z,101746.63
2023-02-12T01:43:43.466Z,101747.56
2023-02-12T01:46:15.221Z,101752.81
2023-02-12T01:48:46.526Z,101751.88
2023-02-12T01:51:21.840Z,101750.09
2023-02-12T01:53:55.053Z,101752.72
2023-02-12T01:56:24.789Z,101744.06
2023-02-12T01:58:58.021Z,101743.13
2023-02-12T02:01:28.986Z,101733.78
2023-02-12T02:04:01.969Z,101737.88
2023-02-12T02:06:35.750Z,101738.72
2023-02-12T02:09:05.480Z,101730.75
2023-02-12T02:11:51.509Z,101722.84
2023-02-12T02:14:35.446Z,101708.03
2023-02-12T02:17:33.498Z,101710.47
2023-02-12T02:20:49.357Z,101712.81
2023-02-12T02:23:53.554Z,101704.69
2023-02-12T02:26:38.504Z,101713.31
2023-02-12T02:29:21.988Z,101709.66
2023-02-12T02:31:58.590Z,101702.63
2023-02-12T02:34:34.838Z,101703.28
2023-02-12T02:37:15.589Z,101704.97
2023-02-12T02:39:49.766Z,101696.94
2023-02-12T02:42:25.427Z,101699.47
2023-02-12T02:44:56.181Z,101693.06
2023-02-12T02:47:33.948Z,101682.47
2023-02-12T02:50:06.786Z,101683.84
2023-02-12T02:52:39.410Z,101687.94
2023-02-12T02:55:10.816Z,101685.22
2023-02-12T02:57:44.452Z,101685.84
2023-02-12T03:00:17.256Z,101671.56
2023-02-12T03:02:53.719Z,101676.59
2023-02-12T03:05:28.567Z,101670.19
2023-02-12T03:08:01.652Z,101669.25
2023-02-12T03:10:35.210Z,101660.09
2023-02-12T03:13:08.700Z,101661.47
2023-02-12T03:15:40.538Z,101665.69
2023-02-12T03:18:18.972Z,101667.16
2023-02-12T03:20:53.419Z,101669.56
2023-02-12T03:23:26.947Z,101668.31
2023-02-12T03:26:00.152Z,101664.63
2023-02-12T03:28:31.452Z,101666.91
2023-02-12T03:31:08.876Z,101661.56
2023-02-12T03:33:51.680Z,101663.13
2023-02-12T03:36:31.458Z,101665.56
2023-02-12T03:39:07.313Z,101656.72
2023-02-12T03:41:43.164Z,101648.19
2023-02-12T03:44:20.038Z,101649.47
2023-02-12T03:47:00.056Z,101656.28
2023-02-12T03:49:34.958Z,101662.38
2023-02-12T03:52:06.092Z,101660.50
2023-02-12T03:54:35.014Z,101656.81
2023-02-12T03:57:09.049Z,101657.44
2023-02-12T03:59:39.040Z,101670.28
2023-02-12T04:02:08.457Z,101665.75
2023-02-12T04:04:38.620Z,101671.53
2023-02-12T04:07:07.027Z,101660.78
2023-02-12T04:09:35.267Z,101663.94
2023-02-12T04:12:36.342Z,101673.31
2023-02-12T04:15:19.137Z,101657.50
2023-02-12T04:17:56.026Z,101657.03
2023-02-12T04:20:42.926Z,101642.91
2023-02-12T04:23:23.948Z,101641.75
2023-02-12T04:26:03.758Z,101638.91
2023-02-12T04:28:40.470Z,101646.59
2023-02-12T04:31:14.682Z,101626.97
2023-02-12T04:33:49.313Z,101631.81
2023-02-12T04:36:24.483Z,101624.53
2023-02-12T04:38:57.126Z,101623.69
2023-02-12T04:41:32.482Z,101626.56
2023-02-12T04:44:00.690Z,101636.81
2023-02-12T04:46:28.968Z,101645.31
2023-02-12T04:48:59.569Z,101648.66
2023-02-12T04:51:29.244Z,101651.09
2023-02-12T04:53:57.832Z,101650.13
2023-02-12T04:56:26.020Z,101633.03
2023-02-12T04:58:57.884Z,101642.75
2023-02-12T05:01:26.264Z,101632.56
2023-02-12T05:03:54.675Z,101645.53
2023-02-12T05:06:22.895Z,101638.34
2023-02-12T05:09:01.829Z,101632.00
2023-02-12T05:11:30.165Z,101616.88
2023-02-12T05:13:58.402Z,101623.00
2023-02-12T05:16:26.604Z,101633.34
2023-02-12T05:18:54.855Z,101624.69
2023-02-12T05:21:23.028Z,101615.59
2023-02-12T05:23:52.668Z,101615.50
2023-02-12T05:26:23.438Z,101616.09
2023-02-12T05:28:51.652Z,101622.09
2023-02-12T05:31:21.700Z,101618.50
2023-02-12T05:33:50.844Z,101620.91
2023-02-12T05:36:21.502Z,101617.31
2023-02-12T05:38:50.645Z,101615.50
2023-02-12T05:41:23.123Z,101619.72
2023-02-12T05:43:51.641Z,101608.22
2023-02-12T05:46:21.235Z,101610.59
2023-02-12T05:48:49.805Z,101613.97
2023-02-12T05:51:21.945Z,101618.28
2023-02-12T05:53:51.333Z,101631.25
2023-02-12T05:56:22.726Z,101647.94
2023-02-12T05:58:56.220Z,101641.81
2023-02-12T06:01:27.521Z,101646.03
2023-02-12T06:04:00.163Z,101652.88
2023-02-12T06:06:29.625Z,101643.16
2023-02-12T06:08:58.593Z,101660.69
2023-02-12T06:11:28.469Z,101647.50
2023-02-12T06:13:56.784Z,101643.84
2023-02-12T06:16:27.017Z,101654.31
2023-02-12T06:19:00.916Z,101649.13
2023-02-12T06:21:29.787Z,101653.47
2023-02-12T06:23:58.146Z,101655.16
2023-02-12T06:26:28.414Z,101655.25
2023-02-12T06:28:56.899Z,101666.66
2023-02-12T06:31:27.458Z,101660.53
2023-02-12T06:33:57.880Z,101660.44
2023-02-12T06:36:26.491Z,101646.38
2023-02-12T06:38:54.991Z,101646.38
2023-02-12T06:41:24.389Z,101655.03
2023-02-12T06:43:54.107Z,101640.16
2023-02-12T06:46:23.062Z,101634.66
2023-02-12T06:48:54.794Z,101629.25
2023-02-12T06:51:24.558Z,101631.66
2023-02-12T06:53:53.972Z,101630.59
2023-02-12T06:56:23.756Z,101633.94
2023-02-12T06:58:56.927Z,101640.56
2023-02-12T07:01:27.560Z,101643.81
2023-02-12T07:03:57.630Z,101649.56
2023-02-12T07:06:27.259Z,101648.38
2023-02-12T07:08:55.817Z,101642.97
2023-02-12T07:11:25.422Z,101643.22
2023-02-12T07:13:55.593Z,101636.72
2023-02-12T07:16:24.062Z,101632.19
2023-02-12T07:18:52.415Z,101631.94
2023-02-12T07:21:20.780Z,101629.31
2023-02-12T07:23:51.172Z,101634.94
2023-02-12T07:26:21.252Z,101629.41
2023-02-12T07:29:01.963Z,101633.63
2023-02-12T07:31:30.504Z,101648.38
2023-02-12T07:34:00.683Z,101638.53
2023-02-12T07:36:31.549Z,101632.16
2023-02-12T07:39:00.279Z,101633.50
2023-02-12T07:41:30.615Z,101638.38
2023-02-12T07:44:07.503Z,101625.78
2023-02-12T07:46:38.096Z,101621.09
2023-02-12T07:49:08.098Z,101625.31
2023-02-12T07:51:37.015Z,101618.06
2023-02-12T07:54:06.694Z,101619.38
2023-02-12T07:56:37.712Z,101616.50
2023-02-12T07:59:09.153Z,101616.25
2023-02-12T08:01:38.914Z,101617.44
2023-02-12T08:04:10.302Z,101627.53
2023-02-12T08:06:40.749Z,101627.25
2023-02-12T08:09:11.780Z,101611.03
2023-02-12T08:11:41.932Z,101613.28
2023-02-12T08:14:16.364Z,101614.69
2023-02-12T08:16:46.454Z,101610.84
2023-02-12T08:19:20.275Z,101611.31
2023-02-12T08:21:52.056Z,101611.03
2023-02-12T08:24:22.457Z,101618.72
2023-02-12T08:26:51.519Z,101612.81
2023-02-12T08:29:27.929Z,101609.09
2023-02-12T08:31:58.367Z,101606.03
2023-02-12T08:34:28.548Z,101603.88
2023-02-12T08:36:57.623Z,101601.66
2023-02-12T08:39:29.129Z,101600.56
2023-02-12T08:41:58.091Z,101598.97
2023-02-12T08:44:27.822Z,101594.94
2023-02-12T08:46:56.991Z,101590.81
2023-02-12T08:49:26.932Z,101597.25
2023-02-12T08:51:57.432Z,101596.88
2023-02-12T08:54:28.037Z,101596.34
2023-02-12T08:56:57.251Z,101597.50
2023-02-12T08:59:25.781Z,101597.78
2023-02-12T09:01:55.767Z,101591.84
2023-02-12T09:04:25.873Z,101566.59
2023-02-12T09:06:54.526Z,101563.19
2023-02-12T09:09:23.529Z,101558.16
2023-02-12T09:11:51.816Z,101560.16
2023-02-12T09:14:24.597Z,101556.81
2023-02-12T09:16:55.172Z,101566.03
2023-02-12T09:19:23.711Z,101566.44
2023-02-12T09:21:55.877Z,101581.00
2023-02-12T09:24:24.766Z,101576.53
2023-02-12T09:26:52.997Z,101571.75
2023-02-12T09:29:21.347Z,101581.00
2023-02-12T09:31:49.649Z,101572.50
2023-02-12T09:34:19.461Z,101562.44
2023-02-12T09:36:48.566Z,101563.00
2023-02-12T09:39:16.755Z,101553.81
2023-02-12T09:42:18.042Z,101559.50
2023-02-12T09:44:54.984Z,101567.47
2023-02-12T09:47:31.682Z,101583.25
2023-02-12T09:50:24.024Z,101573.63
2023-02-12T09:52:53.931Z,101572.38
2023-02-12T09:55:27.477Z,101576.13
2023-02-12T09:57:56.099Z,101581.72
2023-02-12T10:00:31.253Z,101587.59
2023-02-12T10:03:05.327Z,101585.34
2023-02-12T10:05:42.594Z,101575.28
2023-02-12T10:08:24.907Z,101582.72
2023-02-12T10:10:56.006Z,101579.47
2023-02-12T10:13:38.935Z,101579.75
2023-02-12T10:16:14.445Z,101578.38
2023-02-12T10:19:15.579Z,101582.28
2023-02-12T10:21:55.970Z,101582.53
2023-02-12T10:24:49.491Z,101578.06
2023-02-12T10:27:22.748Z,101579.84
2023-02-12T10:29:52.967Z,101572.81
2023-02-12T10:32:27.086Z,101573.94
2023-02-12T10:34:57.572Z,101572.34
2023-02-12T10:37:37.409Z,101571.22
2023-02-12T10:40:17.308Z,101561.97
2023-02-12T10:42:48.756Z,101580.13
2023-02-12T10:45:18.893Z,101561.09
2023-02-12T10:47:48.128Z,101560.19
2023-02-12T10:50:23.784Z,101568.28
2023-02-12T10:52:58.066Z,101554.38
2023-02-12T10:55:29.962Z,101558.00
2023-02-12T10:57:59.206Z,101565.75
2023-02-12T11:00:31.925Z,101558.38
2023-02-12T11:03:06.565Z,101559.16
2023-02-12T11:05:38.136Z,101553.88
2023-02-12T11:08:09.292Z,101558.31
2023-02-12T11:10:41.315Z,101566.53
2023-02-12T11:13:26.516Z,101564.69
2023-02-12T11:15:55.905Z,101558.22
2023-02-12T11:18:26.824Z,101562.78
2023-02-12T11:20:58.630Z,101569.44
2023-02-12T11:23:31.148Z,101573.81
2023-02-12T11:26:02.204Z,101579.00
2023-02-12T11:28:32.511Z,101572.38
2023-02-12T11:31:02.794Z,101568.53
2023-02-12T11:33:34.810Z,101560.06
2023-02-12T11:36:07.562Z,101568.34
2023-02-12T11:38:40.909Z,101560.28
2023-02-12T11:41:24.640Z,101565.44
2023-02-12T11:43:53.371Z,101546.50
2023-02-12T11:46:25.558Z,101544.38
2023-02-12T11:48:55.998Z,101557.25
2023-02-12T11:51:30.016Z,101549.91
2023-02-12T11:54:04.277Z,101561.41
2023-02-12T11:56:43.995Z,101554.31
2023-02-12T11:59:23.058Z,101552.69
2023-02-12T12:01:55.179Z,101554.91
2023-02-12T12:04:25.598Z,101559.25
2023-02-12T12:06:59.698Z,101554.53
2023-02-12T12:09:37.047Z,101562.31
2023-02-12T12:12:13.758Z,101559.25
2023-02-12T12:15:04.919Z,101559.13
2023-02-12T12:17:59.966Z,101544.13
2023-02-12T12:20:32.234Z,101552.25
2023-02-12T12:23:05.310Z,101545.09
2023-02-12T12:25:44.815Z,101543.28
2023-02-12T12:28:30.243Z,101541.44
2023-02-12T12:31:11.452Z,101554.78
2023-02-12T12:33:44.380Z,101545.25
2023-02-12T12:36:58.362Z,101546.72
2023-02-12T12:39:33.710Z,101545.22
2023-02-12T12:42:46.616Z,101545.50
2023-02-12T12:45:41.858Z,101549.16
2023-02-12T12:48:25.209Z,101549.66
2023-02-12T12:51:10.832Z,101534.50
2023-02-12T12:53:56.200Z,101543.47
2023-02-12T12:56:39.316Z,101547.13
2023-02-12T12:59:39.341Z,101538.59
2023-02-12T13:02:49.222Z,101542.09
2023-02-12T13:05:55.468Z,101544.78
2023-02-12T13:08:41.504Z,101543.47
2023-02-12T13:11:22.832Z,101540.81
2023-02-12T13:13:56.118Z,101540.81
2023-02-12T13:16:32.767Z,101541.81
2023-02-12T13:19:06.193Z,101539.28
2023-02-12T13:21:46.755Z,101529.63
2023-02-12T13:24:27.178Z,101534.13
2023-02-12T13:26:58.476Z,101535.50
2023-02-12T13:29:31.049Z,101523.16
2023-02-12T13:32:04.034Z,101522.78
2023-02-12T13:34:36.520Z,101516.47
2023-02-12T13:37:13.339Z,101516.75
2023-02-12T13:39:44.854Z,101512.28
2023-02-12T13:42:29.257Z,101511.59
2023-02-12T13:45:02.214Z,101516.25
2023-02-12T13:47:43.472Z,101523.56
2023-02-12T13:50:33.240Z,101516.72
2023-02-12T13:53:08.577Z,101524.84
2023-02-12T13:55:43.427Z,101523.56
2023-02-12T13:58:49.601Z,101523.03
2023-02-12T14:01:40.033Z,101530.78
2023-02-12T14:04:29.716Z,101522.97
2023-02-12T14:07:01.661Z,101528.44
2023-02-12T14:09:38.635Z,101530.41
2023-02-12T14:12:09.639Z,101534.22
2023-02-12T14:14:40.596Z,101530.03
2023-02-12T14:17:57.779Z,101531.00
2023-02-12T14:20:29.273Z,101536.63
2023-02-12T14:23:27.109Z,101527.97
2023-02-12T14:26:06.440Z,101525.06
2023-02-12T14:28:48.502Z,101541.03
2023-02-12T14:31:32.167Z,101529.00
2023-02-12T14:34:52.226Z,101525.84
2023-02-12T14:37:37.926Z,101526.28
2023-02-12T14:40:47.173Z,101532.03
2023-02-12T14:43:32.799Z,101534.03
2023-02-12T14:46:39.938Z,101540.50
2023-02-12T14:49:24.853Z,101536.16
2023-02-12T14:52:00.427Z,101537.72
2023-02-12T14:54:33.770Z,101545.72
2023-02-12T14:57:05.917Z,101539.88
2023-02-12T14:59:38.887Z,101549.97
2023-02-12T15:02:08.769Z,101548.44
2023-02-12T15:04:40.351Z,101550.25
2023-02-12T15:07:12.214Z,101549.84
2023-02-12T15:09:48.819Z,101558.16
2023-02-12T15:12:22.154Z,101545.97
2023-02-12T15:14:57.597Z,101550.75
2023-02-12T15:17:31.150Z,101548.38
2023-02-12T15:20:04.575Z,101541.84
2023-02-12T15:22:35.791Z,101556.66
2023-02-12T15:25:17.686Z,101552.75
2023-02-12T15:27:49.937Z,101553.03
2023-02-12T15:30:26.107Z,101548.19
2023-02-12T15:32:56.868Z,101543.44
2023-02-12T15:35:29.809Z,101551.84
2023-02-12T15:38:00.278Z,101551.31
2023-02-12T15:40:29.226Z,101552.44
2023-02-12T15:43:00.570Z,101556.22
2023-02-12T15:45:31.061Z,101553.00
2023-02-12T15:48:04.308Z,101547.31
2023-02-12T15:50:35.909Z,101558.34
2023-02-12T15:53:05.041Z,101556.13
2023-02-12T15:55:40.969Z,101560.91
2023-02-12T15:58:22.513Z,101560.19
2023-02-12T16:00:51.440Z,101564.13
2023-02-12T16:03:25.769Z,101563.28
2023-02-12T16:06:03.734Z,101562.00
2023-02-12T16:08:34.647Z,101558.22
2023-02-12T16:11:14.079Z,101552.53
2023-02-12T16:13:54.586Z,101562.84
2023-02-12T16:16:26.601Z,101572.09
2023-02-12T16:19:20.053Z,101573.22
2023-02-12T16:21:53.343Z,101572.63
2023-02-12T16:24:32.419Z,101573.88
2023-02-12T16:27:06.012Z,101573.19
2023-02-12T16:29:38.028Z,101572.50
2023-02-12T16:32:06.758Z,101569.28
2023-02-12T16:34:37.267Z,101573.06
2023-02-12T16:37:43.669Z,101563.56
2023-02-12T16:40:23.513Z,101563.03
2023-02-12T16:42:59.587Z,101566.53
2023-02-12T16:45:52.201Z,101573.91
2023-02-12T16:48:25.422Z,101570.69
2023-02-12T16:50:57.575Z,101571.94
2023-02-12T16:53:43.638Z,101584.22
2023-02-12T16:56:18.307Z,101581.72
2023-02-12T16:58:48.510Z,101578.38
2023-02-12T17:01:23.474Z,101578.53
2023-02-12T17:03:52.624Z,101566.22
2023-02-12T17:06:23.059Z,101585.06
2023-02-12T17:08:52.933Z,101573.75
2023-02-12T17:11:23.315Z,101566.06
2023-02-12T17:13:53.645Z,101567.03
2023-02-12T17:16:30.850Z,101574.72
2023-02-12T17:19:00.197Z,101584.63
2023-02-12T17:21:30.883Z,101576.00
2023-02-12T17:24:00.657Z,101583.97
2023-02-12T17:26:28.842Z,101582.28
2023-02-12T17:29:05.393Z,101584.22
2023-02-12T17:31:37.005Z,101578.34
2023-02-12T17:34:05.994Z,101575.81
2023-02-12T17:36:34.719Z,101577.50
2023-02-12T17:39:07.684Z,101576.81
2023-02-12T17:41:37.070Z,101576.94
2023-02-12T17:44:05.707Z,101573.44
2023-02-12T17:46:34.775Z,101578.75
2023-02-12T17:49:03.255Z,101590.19
2023-02-12T17:51:33.595Z,101582.25
2023-02-12T17:54:03.225Z,101579.88
2023-02-12T17:56:31.517Z,101592.00
2023-02-12T17:58:59.793Z,101584.19
2023-02-12T18:01:28.671Z,101586.84
2023-02-12T18:03:59.466Z,101586.00
2023-02-12T18:06:29.690Z,101589.50
2023-02-12T18:08:59.187Z,101588.66
2023-02-12T18:11:29.510Z,101600.41
2023-02-12T18:13:59.021Z,101600.25
2023-02-12T18:16:30.239Z,101604.72
2023-02-12T18:19:00.008Z,101599.41
2023-02-12T18:21:28.587Z,101592.97
2023-02-12T18:23:56.947Z,101590.31
2023-02-12T18:26:27.640Z,101589.50
2023-02-12T18:28:58.559Z,101591.47
2023-02-12T18:31:27.960Z,101583.66
2023-02-12T18:33:56.295Z,101586.16
2023-02-12T18:36:25.215Z,101584.34
2023-02-12T18:38:54.213Z,101583.34
2023-02-12T18:41:25.027Z,101591.31
2023-02-12T18:43:54.981Z,101586.00
2023-02-12T18:46:30.802Z,101581.53
2023-02-12T18:48:59.783Z,101592.00
2023-02-12T18:51:33.853Z,101592.00
2023-02-12T18:54:06.462Z,101590.19
2023-02-12T18:56:38.300Z,101590.19
2023-02-12T18:59:07.034Z,101591.03
2023-02-12T19:01:46.751Z,101594.53
2023-02-12T19:04:16.901Z,101589.22
2023-02-12T19:06:48.205Z,101597.31
2023-02-12T19:09:20.298Z,101587.97
2023-02-12T19:11:49.879Z,101581.53
2023-02-12T19:14:19.793Z,101595.63
2023-02-12T19:16:50.462Z,101589.50
2023-02-12T19:19:20.204Z,101577.22
2023-02-12T19:21:48.703Z,101575.25
2023-02-12T19:24:17.906Z,101590.31
2023-02-12T19:26:46.554Z,101582.38
2023-02-12T19:29:15.400Z,101585.03
2023-02-12T19:31:46.965Z,101591.16
2023-02-12T19:34:23.250Z,101590.31
2023-02-12T19:36:51.728Z,101597.44
2023-02-12T19:39:21.811Z,101607.38
2023-02-12T19:41:50.953Z,101609.88
2023-02-12T19:44:24.310Z,101603.88
2023-02-12T19:46:55.269Z,101599.56
2023-02-12T19:49:27.020Z,101598.59
2023-02-12T19:51:56.839Z,101597.16
2023-02-12T19:54:25.723Z,101598.44
2023-02-12T19:56:55.462Z,101603.59
2023-02-12T19:59:26.933Z,101607.91
2023-02-12T20:01:56.907Z,101588.53
2023-02-12T20:04:26.933Z,101589.66
2023-02-12T20:06:55.238Z,101587.00
2023-02-12T20:09:24.498Z,101582.81
2023-02-12T20:11:53.445Z,101583.34
2023-02-12T20:14:22.842Z,101588.66
2023-02-12T20:16:52.518Z,101586.00
2023-02-12T20:19:23.326Z,101586.84
2023-02-12T20:21:56.075Z,101586.16
2023-02-12T20:24:25.582Z,101590.63
2023-02-12T20:26:54.452Z,101590.75
2023-02-12T20:29:23.096Z,101593.41
2023-02-12T20:31:51.980Z,101597.88
2023-02-12T20:34:22.179Z,101594.38
2023-02-12T20:36:55.654Z,101593.41
2023-02-12T20:39:25.648Z,101593.41
2023-02-12T20:41:54.106Z,101596.06
2023-02-12T20:44:23.157Z,101588.09
2023-02-12T20:46:56.490Z,101585.31
2023-02-12T20:49:26.145Z,101574.84
2023-02-12T20:51:57.182Z,101578.34
2023-02-12T20:54:26.865Z,101581.13
2023-02-12T20:56:55.195Z,101575.81
2023-02-12T20:59:23.431Z,101577.06
2023-02-12T21:01:51.790Z,101571.63
2023-02-12T21:04:20.837Z,101581.38
2023-02-12T21:06:49.665Z,101584.88
2023-02-12T21:09:18.927Z,101591.28
2023-02-12T21:11:49.685Z,101593.94
2023-02-12T21:14:22.281Z,101599.25
2023-02-12T21:16:53.118Z,101603.84
2023-02-12T21:19:21.708Z,101598.84
2023-02-12T21:21:50.387Z,101603.16
2023-02-12T21:24:21.770Z,101604.28
2023-02-12T21:26:52.112Z,101594.91
2023-02-12T21:29:21.372Z,101597.69
2023-02-12T21:31:51.734Z,101597.69
2023-02-12T21:34:21.877Z,101595.03
2023-02-12T21:36:51.211Z,101588.03
2023-02-12T21:39:25.218Z,101592.63
2023-02-12T21:41:56.645Z,101588.19
2023-02-12T21:44:26.144Z,101583.84
2023-02-12T21:46:55.087Z,101578.00
2023-02-12T21:49:28.152Z,101593.19
2023-02-12T21:51:58.993Z,101588.28
2023-02-12T21:54:29.378Z,101588.53
2023-02-12T21:56:59.602Z,101589.69
2023-02-12T21:59:30.121Z,101596.91
2023-02-12T22:02:00.875Z,101591.88
2023-02-12T22:04:29.604Z,101598.03
2023-02-12T22:06:59.848Z,101590.19
2023-02-12T22:09:28.180Z,101592.84
2023-02-12T22:11:56.332Z,101591.44
2023-02-12T22:14:25.883Z,101593.09
2023-02-12T22:16:54.372Z,101599.50
2023-02-12T22:19:22.613Z,101595.88
2023-02-12T22:21:52.841Z,101596.03
2023-02-12T22:24:21.681Z,101596.03
2023-02-12T22:26:50.341Z,101602.16
2023-02-12T22:29:18.836Z,101593.09
2023-02-12T22:31:49.149Z,101590.47
2023-02-12T22:34:19.164Z,101594.66
2023-02-12T22:36:48.888Z,101602.47
2023-02-12T22:39:22.484Z,101605.00
2023-02-12T22:41:52.192Z,101601.38
2023-02-12T22:44:21.425Z,101597.75
2023-02-12T22:46:54.322Z,101596.50
2023-02-12T22:49:22.609Z,101595.66
2023-02-12T22:51:51.609Z,101598.31
2023-02-12T22:54:21.024Z,101591.31
2023-02-12T22:56:52.040Z,101597.47
2023-02-12T22:59:20.647Z,101598.47
2023-02-12T23:01:50.320Z,101603.91
2023-02-12T23:04:20.099Z,101588.00
2023-02-12T23:06:48.927Z,101602.22
2023-02-12T23:09:19.321Z,101601.50
2023-02-12T23:11:48.765Z,101590.06
2023-02-12T23:14:17.545Z,101586.56
2023-02-12T23:16:46.110Z,101587.41
2023-02-12T23:19:16.397Z,101591.03
2023-02-12T23:21:45.152Z,101582.13
2023-02-12T23:24:15.315Z,101588.38
2023-02-12T23:26:43.752Z,101576.94
2023-02-12T23:29:12.066Z,101577.91
2023-02-12T23:31:40.730Z,101578.06
2023-02-12T23:34:09.027Z,101573.72
2023-02-12T23:36:38.643Z,101566.88
2023-02-12T23:39:07.271Z,101568.97
2023-02-12T23:41:35.846Z,101568.00
2023-02-12T23:44:04.307Z,101564.50
2023-02-12T23:46:32.794Z,101556.56
2023-02-12T23:49:01.047Z,101551.25
2023-02-12T23:51:31.053Z,101555.00
2023-02-12T23:54:00.741Z,101562.13
2023-02-12T23:56:29.629Z,101562.97
2023-02-12T23:58:58.175Z,101555.84
